Clinton, MS (39056)

3:23 PM CDT on May 27, 2015 (GMT -0500)
Storm Team 12 Mobile Weather Lab | | Change Station
CLOSE
Current Station
Personal Weather Station
Location: Jackson, MS
Elevation: 374 ft
Nearby Weather Stations
Active Advisory: Flood Warning

Elev 374 ft 32.28 °N, 90.26 °W | Updated 2 seconds ago

Partly Cloudy
Partly Cloudy
74.6 °F
Feels Like 73 °F
N
74.0
Wind Variable Wind from North
Gusts 74.0 mph

Today
High -- | Low -- °F
--% Chance of Precip.
Yesterday
High -- | Low -- °F
Precip. -- in
5:56 AM 8:00 PM
Waxing Gibbous, 70% visible
Pressure 30.10 in
Visibility 10.0 miles
Clouds Few 1500 ft
Few 4800 ft
Few 9500 ft
Heat Index 73 °F
Dew Point 73 °F
Humidity 94%
Rainfall in
Snow Depth Not available.
UV 9 out of 12
Pollen 4.80 out of 12
Air Quality Not available.
Flu Activity No Activity
METAR KJVW 272015Z AUTO 21007G12KT 10SM FEW015 FEW048 FEW095 26/23 A3010 RMK AO2 LTG DSNT N

More Conditions Fewer Conditions

Pressure 30.10 in
Visibility 10.0 miles
Clouds Few 1500 ft
Few 4800 ft
Few 9500 ft
Heat Index 73 °F
Dew Point 73 °F
Humidity 94%
Rainfall in
Snow Depth Not available.
UV 9 out of 12
Pollen 4.80 out of 12
Air Quality Not available.
Flu Activity No Activity
METAR KJVW 272015Z AUTO 21007G12KT 10SM FEW015 FEW048 FEW095 26/23 A3010 RMK AO2 LTG DSNT N

More Conditions Fewer Conditions

10-Day Weather Forecast

Almanac

Astronomy

May. 27, 2015 Rise Set
Actual Time
Civil Twilight
Nautical Twilight
Astronomical Twilight
Moon
Length of Visible Light
Length of Day
Tomorrow will be .
, % of the Moon is Illuminated

Today's Extremes

State Highs State Lows

Community

WunderPhotos

Upload Photos

1,824,778 photos uploaded!

WunderBlogs® & News

Nearby

Air Quality

  Air Quality AQ Index Pollutant
Not available.

Snow Depth

Station Depth Elevation

Earthquake Activity

City Distance Mag. Time & Date
Minimum magnitude displayed is 2.5.

Coastal Water Temperatures

Place Temperature

Stations

Nearby Weather Stations

Station Location Temp. Windchill Dew Point Humidity Wind Precip. Elev Updated Type
                   
Flood Warning
Statement as of 8:22 AM CDT on May 27, 2015


The Flood Warning continues for
the Big Black River near Bovina
* until further notice.
* At 8:15 am Wednesday the stage was 28.2 feet.
* Minor flooding is occurring and minor flooding is forecast.
* Flood stage is 28.0 feet.
* Forecast... the river will continue rising to near 31.0 feet by
Saturday morning.
* Impact... at 28.0 feet... low-lying agricultural land near the river
begins to flood.


              Flood observed forecast 7 am crest
location stg stg day time Thu Fri Sat crest time date

Lower Big Black River
Bovina 28 28.2 Wed 08 am 29.1 30.4 31.0 31.0 07 am 05/30




Lat... Lon 3217 9093 3224 9078 3256 9064 3245 9052
      3218 9065 3204 9102